createdAt,value
2019-04-14T00:00:16.478Z,55.37
2019-04-14T00:02:55.466Z,57.02
2019-04-14T00:05:31.430Z,60.15
2019-04-14T00:08:02.685Z,64.09
2019-04-14T00:10:35.496Z,58.68
2019-04-14T00:13:08.976Z,53.93
2019-04-14T00:15:45.151Z,57.39
2019-04-14T00:18:16.447Z,60.47
2019-04-14T00:20:49.572Z,62.39
2019-04-14T00:23:22.256Z,62.99
2019-04-14T00:25:54.556Z,54.12
2019-04-14T00:28:27.715Z,55.85
2019-04-14T00:31:02.388Z,59.01
2019-04-14T00:33:35.114Z,62.14
2019-04-14T00:36:10.992Z,61.91
2019-04-14T00:38:46.012Z,52.99
2019-04-14T00:41:41.323Z,54.55
2019-04-14T00:44:14.551Z,58.37
2019-04-14T00:46:58.277Z,61.33
2019-04-14T00:49:31.171Z,64.48
2019-04-14T00:52:04.144Z,55.13
2019-04-14T00:54:39.210Z,52.45
2019-04-14T00:57:11.826Z,55.66
2019-04-14T00:59:44.106Z,59.56
2019-04-14T01:02:16.768Z,61.77
2019-04-14T01:04:51.229Z,64.06
2019-04-14T01:07:24.138Z,53.52
2019-04-14T01:09:57.526Z,53.31
2019-04-14T01:12:30.354Z,56.98
2019-04-14T01:15:05.001Z,59.57
2019-04-14T01:17:37.858Z,62.81
2019-04-14T01:20:10.736Z,59.66
2019-04-14T01:22:44.476Z,54.31
2019-04-14T01:25:17.332Z,57.25
2019-04-14T01:27:51.734Z,60.16
2019-04-14T01:30:24.188Z,63.37
2019-04-14T01:32:56.905Z,56.55
2019-04-14T01:35:29.599Z,53.81
2019-04-14T01:38:02.282Z,57.10
2019-04-14T01:40:35.938Z,60.02
2019-04-14T01:43:09.984Z,63.07
2019-04-14T01:45:43.123Z,60.15
2019-04-14T01:48:17.087Z,53.25
2019-04-14T01:50:51.676Z,56.13
2019-04-14T01:53:29.287Z,60.02
2019-04-14T01:56:16.506Z,62.92
2019-04-14T01:58:53.617Z,58.27
2019-04-14T02:01:30.577Z,53.50
2019-04-14T02:04:03.217Z,57.28
2019-04-14T02:06:35.833Z,60.83
2019-04-14T02:09:12.204Z,63.83
2019-04-14T02:11:44.888Z,54.61
2019-04-14T02:14:17.408Z,55.34
2019-04-14T02:16:55.242Z,58.98
2019-04-14T02:19:26.252Z,61.21
2019-04-14T02:21:58.831Z,61.30
2019-04-14T02:24:31.434Z,53.43
2019-04-14T02:27:03.681Z,55.19
2019-04-14T02:29:36.710Z,59.37
2019-04-14T02:32:47.178Z,62.24
2019-04-14T02:35:10.862Z,62.80
2019-04-14T02:37:45.504Z,53.76
2019-04-14T02:40:33.163Z,55.23
2019-04-14T02:42:54.236Z,57.89
2019-04-14T02:45:45.205Z,61.17
2019-04-14T02:53:15.657Z,55.81
2019-04-14T02:55:48.921Z,59.50
2019-04-14T03:01:02.839Z,61.92
2019-04-14T03:06:10.440Z,54.94
2019-04-14T03:11:26.963Z,61.07
2019-04-14T03:13:44.971Z,64.01
2019-04-14T03:16:23.540Z,53.06
2019-04-14T03:32:23.538Z,52.88
2019-04-14T03:34:52.078Z,56.47
2019-04-14T03:37:37.649Z,59.30
2019-04-14T03:42:31.328Z,62.78
2019-04-14T03:45:00.520Z,52.87
2019-04-14T03:50:09.710Z,56.40
2019-04-14T03:55:05.552Z,61.55
2019-04-14T03:57:27.031Z,61.92
2019-04-14T03:59:58.917Z,53.25
2019-04-14T04:02:31.599Z,55.96
2019-04-14T04:05:04.325Z,58.66
2019-04-14T04:07:37.047Z,60.72
2019-04-14T04:10:11.497Z,63.52
2019-04-14T04:12:44.463Z,54.95
2019-04-14T04:15:17.063Z,55.74
2019-04-14T04:17:51.672Z,59.05
2019-04-14T04:20:26.369Z,61.72
2019-04-14T04:23:07.388Z,62.52
2019-04-14T04:25:42.199Z,53.73
2019-04-14T04:28:14.515Z,56.02
2019-04-14T04:30:51.851Z,58.89
2019-04-14T04:33:42.338Z,61.85
2019-04-14T04:36:29.159Z,61.91
2019-04-14T04:39:03.942Z,53.68
2019-04-14T04:41:36.977Z,56.38
2019-04-14T04:44:09.655Z,59.08
2019-04-14T04:46:43.722Z,62.21
2019-04-14T04:49:21.753Z,61.46
2019-04-14T04:51:53.039Z,53.01
2019-04-14T04:54:27.830Z,55.75
2019-04-14T04:57:01.041Z,59.11
2019-04-14T04:59:34.360Z,61.27
2019-04-14T05:02:07.110Z,61.87
2019-04-14T05:04:39.786Z,53.80
2019-04-14T05:07:12.521Z,55.79
2019-04-14T05:09:46.935Z,58.90
2019-04-14T05:12:24.253Z,60.94
2019-04-14T05:15:00.986Z,63.58
2019-04-14T05:17:38.909Z,53.62
2019-04-14T05:20:12.045Z,54.02
2019-04-14T05:22:44.716Z,57.22
2019-04-14T05:25:17.405Z,59.26
2019-04-14T05:27:50.079Z,61.65
2019-04-14T05:30:22.767Z,63.02
2019-04-14T05:32:56.512Z,58.14
2019-04-14T05:35:29.448Z,53.24
2019-04-14T05:38:02.183Z,55.27
2019-04-14T05:40:34.492Z,57.79
2019-04-14T05:43:07.133Z,60.32
2019-04-14T05:45:39.852Z,62.12
2019-04-14T05:48:12.098Z,63.94
2019-04-14T05:50:44.802Z,55.92
2019-04-14T05:53:17.524Z,53.54
2019-04-14T05:55:50.422Z,56.24
2019-04-14T05:58:23.292Z,58.14
2019-04-14T06:00:55.926Z,59.86
2019-04-14T06:03:29.835Z,61.43
2019-04-14T06:06:03.612Z,63.17
2019-04-14T06:08:36.224Z,54.12
2019-04-14T06:11:08.906Z,54.29
2019-04-14T06:13:41.639Z,56.74
2019-04-14T06:16:14.358Z,59.14
2019-04-14T06:18:47.036Z,60.65
2019-04-14T06:21:19.721Z,62.11
2019-04-14T06:23:52.401Z,61.70
2019-04-14T06:26:24.970Z,54.17
2019-04-14T06:28:57.219Z,55.20
2019-04-14T06:31:47.544Z,57.47
2019-04-14T06:34:21.747Z,58.53
2019-04-14T06:36:59.036Z,59.81
2019-04-14T06:39:39.183Z,61.61
2019-04-14T06:42:11.492Z,62.26
2019-04-14T06:44:43.728Z,61.98
2019-04-14T06:47:16.411Z,52.98
2019-04-14T06:49:49.426Z,54.76
2019-04-14T06:52:22.489Z,56.96
2019-04-14T06:54:55.156Z,58.27
2019-04-14T06:57:27.836Z,58.02
2019-04-14T07:00:00.075Z,60.04
2019-04-14T07:02:32.791Z,60.25
2019-04-14T07:05:07.116Z,62.22
2019-04-14T07:07:39.422Z,62.75
2019-04-14T07:10:12.062Z,52.95
2019-04-14T07:12:44.366Z,53.31
2019-04-14T07:15:17.009Z,55.76
2019-04-14T07:17:49.680Z,57.84
2019-04-14T07:20:22.253Z,59.52
2019-04-14T07:22:54.936Z,59.59
2019-04-14T07:25:27.626Z,60.75
2019-04-14T07:28:00.142Z,61.39
2019-04-14T07:30:47.406Z,62.16
2019-04-14T07:33:31.648Z,63.06
2019-04-14T07:36:12.737Z,52.74
2019-04-14T07:38:46.856Z,53.38
2019-04-14T07:41:29.881Z,55.19
2019-04-14T07:44:04.073Z,57.03
2019-04-14T07:46:56.140Z,58.71
2019-04-14T07:49:42.418Z,59.71
2019-04-14T07:52:28.613Z,60.45
2019-04-14T07:55:00.985Z,61.12
2019-04-14T07:57:53.541Z,61.65
2019-04-14T08:00:31.644Z,63.04
2019-04-14T08:03:07.142Z,52.51
2019-04-14T08:05:41.405Z,52.88
2019-04-14T08:08:13.647Z,54.14
2019-04-14T08:10:46.357Z,55.93
2019-04-14T08:13:19.025Z,57.51
2019-04-14T08:15:51.565Z,58.35
2019-04-14T08:18:24.050Z,58.39
2019-04-14T08:20:56.765Z,58.88
2019-04-14T08:23:29.450Z,60.00
2019-04-14T08:26:02.127Z,60.54
2019-04-14T08:28:34.802Z,60.23
2019-04-14T08:31:07.534Z,60.79
2019-04-14T08:33:40.148Z,61.07
2019-04-14T08:36:13.858Z,61.92
2019-04-14T08:38:46.433Z,61.29
2019-04-14T08:41:19.119Z,62.21
2019-04-14T08:44:09.300Z,62.10
2019-04-14T08:46:42.259Z,55.25
2019-04-14T08:49:31.152Z,54.00
2019-04-14T08:52:11.512Z,54.76
2019-04-14T08:54:55.962Z,55.42
2019-04-14T08:57:45.234Z,54.98
2019-04-14T09:00:26.303Z,54.54
2019-04-14T09:03:03.335Z,53.59
2019-04-14T09:05:37.495Z,55.54
2019-04-14T09:08:17.973Z,55.88
2019-04-14T09:10:54.635Z,55.19
2019-04-14T09:13:26.940Z,53.01
2019-04-14T09:15:59.590Z,52.88
2019-04-14T09:18:32.371Z,49.67
2019-04-14T09:21:06.279Z,51.12
2019-04-14T09:23:39.056Z,51.52
2019-04-14T09:26:11.736Z,50.90
2019-04-14T09:28:44.419Z,50.04
2019-04-14T09:31:17.094Z,46.85
2019-04-14T09:33:49.774Z,46.14
2019-04-14T09:36:22.447Z,46.59
2019-04-14T09:38:56.925Z,46.01
2019-04-14T09:41:29.554Z,45.61
2019-04-14T09:44:02.225Z,44.96
2019-04-14T09:46:35.932Z,45.26
2019-04-14T09:49:08.617Z,43.74
2019-04-14T09:51:41.295Z,43.17
2019-04-14T09:54:14.073Z,42.92
2019-04-14T09:56:46.744Z,42.80
2019-04-14T09:59:19.059Z,39.26
2019-04-14T10:01:51.803Z,43.36
2019-04-14T10:04:24.487Z,44.16
2019-04-14T10:06:57.259Z,44.45
2019-04-14T10:09:30.256Z,40.47
2019-04-14T10:12:02.931Z,40.84
2019-04-14T10:14:35.601Z,40.26
2019-04-14T10:17:08.386Z,40.05
2019-04-14T10:19:41.071Z,38.04
2019-04-14T10:22:13.309Z,38.28
2019-04-14T10:24:45.925Z,38.73
2019-04-14T10:27:18.692Z,37.31
2019-04-14T10:29:51.377Z,37.35
2019-04-14T10:32:24.053Z,37.66
2019-04-14T10:34:57.917Z,37.76
2019-04-14T10:37:30.532Z,39.77
2019-04-14T10:40:05.962Z,39.59
2019-04-14T10:42:38.965Z,39.36
2019-04-14T10:45:11.781Z,38.66
2019-04-14T10:47:44.635Z,39.61
2019-04-14T10:50:29.989Z,37.56
2019-04-14T10:52:51.502Z,35.43
2019-04-14T10:55:24.199Z,35.21
2019-04-14T10:57:56.883Z,34.50
2019-04-14T11:00:29.529Z,33.25
2019-04-14T11:03:02.138Z,34.07
2019-04-14T11:05:53.454Z,34.36
2019-04-14T11:08:26.233Z,30.97
2019-04-14T11:10:59.214Z,29.71
2019-04-14T11:13:31.804Z,31.18
2019-04-14T11:16:04.486Z,30.79
2019-04-14T11:18:37.158Z,30.02
2019-04-14T11:21:09.837Z,30.91
2019-04-14T11:23:42.525Z,31.34
2019-04-14T11:26:14.828Z,30.17
2019-04-14T11:28:48.690Z,28.31
2019-04-14T11:31:25.683Z,30.63
2019-04-14T11:34:03.060Z,30.07
2019-04-14T11:36:40.254Z,27.53
2019-04-14T11:39:14.065Z,28.00
2019-04-14T11:41:46.888Z,28.50
2019-04-14T11:44:19.823Z,27.90
2019-04-14T11:46:52.164Z,27.12
2019-04-14T11:49:25.590Z,26.41
2019-04-14T11:51:58.478Z,26.19
2019-04-14T11:54:31.146Z,26.03
2019-04-14T11:57:03.841Z,25.12
2019-04-14T11:59:38.328Z,24.41
2019-04-14T12:02:21.425Z,24.62
2019-04-14T12:05:04.290Z,23.42
2019-04-14T12:07:40.978Z,23.31
2019-04-14T12:10:14.989Z,24.32
2019-04-14T12:12:47.761Z,22.99
2019-04-14T12:15:20.801Z,23.30
2019-04-14T12:17:53.525Z,24.44
2019-04-14T12:20:26.211Z,24.09
2019-04-14T12:22:58.748Z,24.86
2019-04-14T12:25:31.369Z,24.03
2019-04-14T12:28:04.764Z,24.23
2019-04-14T12:30:37.740Z,22.11
2019-04-14T12:33:10.732Z,20.26
2019-04-14T12:35:43.207Z,21.44
2019-04-14T12:38:15.887Z,20.73
2019-04-14T12:40:50.045Z,19.95
2019-04-14T12:43:30.970Z,21.45
2019-04-14T12:46:20.546Z,20.65
2019-04-14T12:49:09.720Z,20.57
2019-04-14T12:51:46.687Z,20.40
2019-04-14T12:54:21.021Z,19.64
2019-04-14T12:56:53.747Z,20.55
2019-04-14T12:59:29.327Z,20.50
2019-04-14T13:02:07.755Z,20.24
2019-04-14T13:04:40.524Z,19.96
2019-04-14T13:07:13.210Z,20.26
2019-04-14T13:09:47.016Z,20.33
2019-04-14T13:12:19.689Z,20.37
2019-04-14T13:14:52.377Z,19.15
2019-04-14T13:17:25.348Z,19.51
2019-04-14T13:19:57.898Z,19.22
2019-04-14T13:22:34.132Z,19.15
2019-04-14T13:25:07.084Z,19.66
2019-04-14T13:27:39.455Z,19.04
2019-04-14T13:30:14.249Z,19.08
2019-04-14T13:32:46.490Z,17.89
2019-04-14T13:35:18.929Z,17.67
2019-04-14T13:37:51.579Z,17.81
2019-04-14T13:40:23.874Z,17.99
2019-04-14T13:42:56.570Z,19.03
2019-04-14T13:45:29.308Z,18.22
2019-04-14T13:48:01.989Z,18.05
2019-04-14T13:50:34.686Z,17.42
2019-04-14T13:53:07.341Z,18.90
2019-04-14T13:55:40.026Z,18.30
2019-04-14T13:58:12.700Z,17.79
2019-04-14T14:00:45.387Z,17.87
2019-04-14T14:03:18.060Z,17.86
2019-04-14T14:05:51.357Z,16.34
2019-04-14T14:08:24.033Z,17.23
2019-04-14T14:10:58.342Z,17.57
2019-04-14T14:13:38.501Z,16.22
2019-04-14T14:16:12.822Z,15.97
2019-04-14T14:18:56.147Z,17.08
2019-04-14T14:21:31.381Z,17.01
2019-04-14T14:24:17.686Z,16.58
2019-04-14T14:26:51.551Z,16.83
2019-04-14T14:29:23.691Z,16.79
2019-04-14T14:31:57.671Z,15.96
2019-04-14T14:34:30.352Z,16.39
2019-04-14T14:37:03.022Z,17.30
2019-04-14T14:39:36.220Z,16.63
2019-04-14T14:42:08.897Z,16.37
2019-04-14T14:44:45.878Z,16.88
2019-04-14T14:47:20.101Z,17.12
2019-04-14T14:49:54.316Z,16.88
2019-04-14T14:52:27.309Z,16.81
2019-04-14T14:54:59.978Z,16.54
2019-04-14T14:57:32.277Z,16.24
2019-04-14T15:00:10.750Z,16.13
2019-04-14T15:02:43.431Z,17.30
2019-04-14T15:05:16.419Z,15.90
2019-04-14T15:07:49.100Z,15.46
2019-04-14T15:10:21.781Z,15.98
2019-04-14T15:12:54.467Z,16.00
2019-04-14T15:15:27.173Z,16.12
2019-04-14T15:17:59.916Z,16.21
2019-04-14T15:20:32.711Z,16.34
2019-04-14T15:23:05.989Z,16.42
2019-04-14T15:25:38.671Z,16.00
2019-04-14T15:28:11.359Z,15.99
2019-04-14T15:30:44.038Z,16.43
2019-04-14T15:33:16.712Z,16.74
2019-04-14T15:35:49.386Z,16.48
2019-04-14T15:38:21.973Z,16.09
2019-04-14T15:40:54.215Z,17.23
2019-04-14T15:43:26.508Z,17.02
2019-04-14T15:45:59.195Z,16.06
2019-04-14T15:48:31.909Z,16.28
2019-04-14T15:51:04.553Z,16.26
2019-04-14T15:53:38.411Z,16.13
2019-04-14T15:56:12.865Z,16.28
2019-04-14T15:58:50.168Z,16.94
2019-04-14T16:01:30.415Z,17.54
2019-04-14T16:04:04.648Z,17.29
2019-04-14T16:06:47.860Z,17.93
2019-04-14T16:09:24.703Z,18.13
2019-04-14T16:12:02.872Z,17.85
2019-04-14T16:14:37.580Z,18.57
2019-04-14T16:17:28.182Z,18.22
2019-04-14T16:20:11.496Z,18.20
2019-04-14T16:22:44.277Z,18.12
2019-04-14T16:25:16.580Z,18.20
2019-04-14T16:28:03.060Z,17.61
2019-04-14T16:30:40.133Z,18.04
2019-04-14T16:33:14.347Z,18.03
2019-04-14T16:35:48.559Z,17.73
2019-04-14T16:38:21.143Z,17.45
2019-04-14T16:40:54.329Z,17.36
2019-04-14T16:43:27.121Z,17.82
2019-04-14T16:45:59.801Z,17.89
2019-04-14T16:48:32.473Z,17.98
2019-04-14T16:51:06.173Z,17.67
2019-04-14T16:53:40.596Z,17.63
2019-04-14T16:56:14.913Z,17.94
2019-04-14T16:58:48.729Z,17.84
2019-04-14T17:01:28.721Z,17.95
2019-04-14T17:04:01.458Z,18.40
2019-04-14T17:06:34.128Z,18.54
2019-04-14T17:09:08.958Z,18.96
2019-04-14T17:11:43.185Z,19.91
2019-04-14T17:14:17.434Z,20.15
2019-04-14T17:16:57.501Z,21.24
2019-04-14T17:19:37.922Z,21.67
2019-04-14T17:22:15.299Z,22.16
2019-04-14T17:24:55.343Z,22.96
2019-04-14T17:27:29.212Z,23.74
2019-04-14T17:30:22.624Z,25.06
2019-04-14T17:33:04.100Z,24.85
2019-04-14T17:35:54.409Z,25.82
2019-04-14T17:38:29.204Z,26.06
2019-04-14T17:41:21.406Z,26.62
2019-04-14T17:44:06.933Z,27.75
2019-04-14T17:47:12.203Z,28.15
2019-04-14T17:49:53.251Z,28.46
2019-04-14T17:52:46.463Z,29.74
2019-04-14T17:55:34.020Z,30.20
2019-04-14T17:58:23.329Z,30.76
2019-04-14T18:01:12.120Z,31.47
2019-04-14T18:04:04.203Z,32.02
2019-04-14T18:06:58.415Z,32.38
2019-04-14T18:10:01.932Z,32.35
2019-04-14T18:12:49.847Z,32.42
2019-04-14T18:15:50.042Z,33.38
2019-04-14T18:18:46.411Z,33.66
2019-04-14T18:21:39.650Z,33.88
2019-04-14T18:24:41.232Z,34.80
2019-04-14T18:27:17.397Z,35.62
2019-04-14T18:30:07.712Z,35.95
2019-04-14T18:33:22.585Z,35.81
2019-04-14T18:36:19.551Z,36.51
2019-04-14T18:39:02.573Z,36.36
2019-04-14T18:41:58.386Z,36.85
2019-04-14T18:44:49.551Z,37.52
2019-04-14T18:47:32.984Z,37.96
2019-04-14T18:50:19.962Z,37.90
2019-04-14T18:53:07.909Z,38.05
2019-04-14T18:55:53.540Z,38.19
2019-04-14T18:58:52.636Z,39.67
2019-04-14T19:01:36.691Z,39.42
2019-04-14T19:04:15.775Z,39.96
2019-04-14T19:06:57.764Z,39.64
2019-04-14T19:09:37.506Z,40.07
2019-04-14T19:12:25.835Z,40.29
2019-04-14T19:15:17.708Z,40.39
2019-04-14T19:18:05.827Z,40.46
2019-04-14T19:20:47.251Z,40.64
2019-04-14T19:23:32.907Z,40.76
2019-04-14T19:26:16.303Z,40.67
2019-04-14T19:28:57.031Z,40.84
2019-04-14T19:31:43.913Z,40.60
2019-04-14T19:34:19.658Z,40.56
2019-04-14T19:36:59.878Z,41.02
2019-04-14T19:39:32.502Z,41.26
2019-04-14T19:42:05.165Z,41.26
2019-04-14T19:44:37.830Z,41.43
2019-04-14T19:47:11.248Z,41.84
2019-04-14T19:49:44.533Z,41.01
2019-04-14T19:52:20.552Z,41.19
2019-04-14T19:54:53.008Z,41.37
2019-04-14T19:57:25.668Z,41.88
2019-04-14T19:59:58.229Z,42.13
2019-04-14T20:02:30.957Z,41.99
2019-04-14T20:05:03.236Z,42.93
2019-04-14T20:07:35.757Z,43.68
2019-04-14T20:10:09.966Z,44.05
2019-04-14T20:12:42.646Z,44.12
2019-04-14T20:15:16.965Z,44.44
2019-04-14T20:17:53.953Z,45.24
2019-04-14T20:20:28.259Z,45.91
2019-04-14T20:23:10.325Z,46.34
2019-04-14T20:25:47.450Z,46.20
2019-04-14T20:28:21.710Z,46.63
2019-04-14T20:30:55.512Z,47.20
2019-04-14T20:33:27.823Z,47.33
2019-04-14T20:36:00.412Z,47.76
2019-04-14T20:38:33.088Z,48.05
2019-04-14T20:41:05.778Z,48.36
2019-04-14T20:43:38.451Z,48.61
2019-04-14T20:46:10.678Z,48.74
2019-04-14T20:48:43.402Z,49.19
2019-04-14T20:51:16.893Z,49.68
2019-04-14T20:53:50.288Z,49.49
2019-04-14T20:56:22.968Z,49.85
2019-04-14T20:58:55.270Z,50.26
2019-04-14T21:01:29.517Z,50.08
2019-04-14T21:04:09.487Z,50.59
2019-04-14T21:06:43.724Z,50.73
2019-04-14T21:09:20.572Z,50.93
2019-04-14T21:12:13.042Z,51.19
2019-04-14T21:14:46.909Z,51.53
2019-04-14T21:17:38.982Z,51.48
2019-04-14T21:20:13.246Z,51.80
2019-04-14T21:23:03.282Z,51.94
2019-04-14T21:25:44.575Z,52.19
2019-04-14T21:28:25.954Z,52.06
2019-04-14T21:31:03.140Z,52.41
2019-04-14T21:33:47.383Z,52.86
2019-04-14T21:36:36.648Z,52.88
2019-04-14T21:39:11.791Z,52.92
2019-04-14T21:41:46.521Z,53.24
2019-04-14T21:44:18.659Z,53.43
2019-04-14T21:46:51.358Z,53.67
2019-04-14T21:49:24.048Z,53.45
2019-04-14T21:51:59.032Z,53.65
2019-04-14T21:54:31.658Z,54.01
2019-04-14T21:57:13.247Z,54.23
2019-04-14T21:59:48.692Z,54.52
2019-04-14T22:02:40.001Z,54.54
2019-04-14T22:05:23.456Z,54.45
2019-04-14T22:07:55.820Z,55.10
2019-04-14T22:10:32.793Z,55.00
2019-04-14T22:13:05.467Z,54.59
2019-04-14T22:15:38.799Z,55.08
2019-04-14T22:18:11.040Z,54.95
2019-04-14T22:20:43.697Z,54.71
2019-04-14T22:23:16.389Z,55.01
2019-04-14T22:25:48.825Z,54.59
2019-04-14T22:28:21.541Z,55.14
2019-04-14T22:30:54.115Z,54.96
2019-04-14T22:33:26.878Z,55.06
2019-04-14T22:35:59.476Z,54.62
2019-04-14T22:38:32.005Z,55.05
2019-04-14T22:41:05.942Z,54.67
2019-04-14T22:43:38.761Z,55.14
2019-04-14T22:46:11.419Z,55.44
2019-04-14T22:48:44.097Z,54.60
2019-04-14T22:51:16.777Z,55.19
2019-04-14T22:53:49.348Z,54.66
2019-04-14T22:56:21.574Z,54.80
2019-04-14T22:58:54.313Z,55.51
2019-04-14T23:01:28.521Z,54.73
2019-04-14T23:04:11.674Z,55.71
2019-04-14T23:07:02.545Z,54.66
2019-04-14T23:09:35.207Z,55.09
2019-04-14T23:12:10.650Z,54.75
2019-04-14T23:14:42.643Z,55.42
2019-04-14T23:17:16.827Z,55.14
2019-04-14T23:19:56.783Z,54.63
2019-04-14T23:22:30.997Z,56.43
2019-04-14T23:25:03.674Z,54.94
2019-04-14T23:27:36.362Z,55.63
2019-04-14T23:30:09.755Z,55.17
2019-04-14T23:32:42.326Z,55.07
2019-04-14T23:35:15.007Z,55.16
2019-04-14T23:37:47.788Z,55.14
2019-04-14T23:40:20.570Z,56.45
2019-04-14T23:42:53.245Z,54.61
2019-04-14T23:45:26.434Z,55.62
2019-04-14T23:47:58.890Z,54.74
2019-04-14T23:50:31.088Z,55.52
2019-04-14T23:53:04.015Z,55.90
2019-04-14T23:55:36.839Z,54.94
2019-04-14T23:58:09.316Z,56.00
